sensor_id;sensor_type;location;lat;lon;timestamp;temperature;humidity
71523;HTU21D;59343;51.102;5.884;2023-03-14T12:30:00;10.62;68.62
71523;HTU21D;59343;51.102;5.884;2023-03-14T12:32:27;10.53;68.18
71523;HTU21D;59343;51.102;5.884;2023-03-14T12:34:54;10.49;68.33
71523;HTU21D;59343;51.102;5.884;2023-03-14T12:37:36;10.49;68.10
71523;HTU21D;59343;51.102;5.884;2023-03-14T12:40:19;10.44;69.00
71523;HTU21D;59343;51.102;5.884;2023-03-14T12:43:00;10.44;69.25
71523;HTU21D;59343;51.102;5.884;2023-03-14T12:45:35;10.11;69.77
71523;HTU21D;59343;51.102;5.884;2023-03-14T12:48:10;9.69;71.34
71523;HTU21D;59343;51.102;5.884;2023-03-14T12:50:43;9.46;72.60
71523;HTU21D;59343;51.102;5.884;2023-03-14T13:04:52;8.97;74.44
71523;HTU21D;59343;51.102;5.884;2023-03-14T13:10:26;9.01;74.35
71523;HTU21D;59343;51.102;5.884;2023-03-14T13:13:23;9.12;74.47
71523;HTU21D;59343;51.102;5.884;2023-03-14T13:15:59;9.32;74.58
71523;HTU21D;59343;51.102;5.884;2023-03-14T13:18:39;9.42;73.67
71523;HTU21D;59343;51.102;5.884;2023-03-14T13:21:21;9.51;73.73
71523;HTU21D;59343;51.102;5.884;2023-03-14T13:24:20;9.56;73.57
71523;HTU21D;59343;51.102;5.884;2023-03-14T13:26:54;9.51;72.99
71523;HTU21D;59343;51.102;5.884;2023-03-14T13:29:32;9.50;73.35
71523;HTU21D;59343;51.102;5.884;2023-03-14T13:32:17;9.57;73.62
71523;HTU21D;59343;51.102;5.884;2023-03-14T13:34:48;9.68;73.27
71523;HTU21D;59343;51.102;5.884;2023-03-14T13:37:24;9.68;73.12
71523;HTU21D;59343;51.102;5.884;2023-03-14T13:40:23;9.79;71.93
71523;HTU21D;59343;51.102;5.884;2023-03-14T13:43:31;9.79;71.08
71523;HTU21D;59343;51.102;5.884;2023-03-14T13:46:30;9.89;70.57
71523;HTU21D;59343;51.102;5.884;2023-03-14T13:49:05;9.93;69.36
71523;HTU21D;59343;51.102;5.884;2023-03-14T13:58:19;9.98;67.84
71523;HTU21D;59343;51.102;5.884;2023-03-14T14:01:34;10.03;67.60
71523;HTU21D;59343;51.102;5.884;2023-03-14T14:04:15;10.12;67.64
71523;HTU21D;59343;51.102;5.884;2023-03-14T14:06:58;10.20;66.83
71523;HTU21D;59343;51.102;5.884;2023-03-14T14:10:19;10.19;66.24
71523;HTU21D;59343;51.102;5.884;2023-03-14T14:13:14;10.14;66.62
71523;HTU21D;59343;51.102;5.884;2023-03-14T14:16:04;10.28;66.72
71523;HTU21D;59343;51.102;5.884;2023-03-14T14:18:56;10.35;66.26
71523;HTU21D;59343;51.102;5.884;2023-03-14T14:21:50;10.39;66.16
71523;HTU21D;59343;51.102;5.884;2023-03-14T14:31:58;10.55;64.05
71523;HTU21D;59343;51.102;5.884;2023-03-14T14:39:28;10.74;63.72
71523;HTU21D;59343;51.102;5.884;2023-03-14T14:42:52;10.84;62.80
71523;HTU21D;59343;51.102;5.884;2023-03-14T14:46:34;10.86;61.20
71523;HTU21D;59343;51.102;5.884;2023-03-14T15:02:05;10.93;56.33
71523;HTU21D;59343;51.102;5.884;2023-03-14T15:17:48;10.67;50.53
71523;HTU21D;59343;51.102;5.884;2023-03-14T15:20:59;10.52;52.04
71523;HTU21D;59343;51.102;5.884;2023-03-14T15:29:16;10.48;51.91
71523;HTU21D;59343;51.102;5.884;2023-03-14T15:36:55;10.31;51.03
71523;HTU21D;59343;51.102;5.884;2023-03-14T15:39:42;10.25;51.16
71523;HTU21D;59343;51.102;5.884;2023-03-14T15:43:04;10.15;51.63
71523;HTU21D;59343;51.102;5.884;2023-03-14T15:46:46;10.01;52.49
71523;HTU21D;59343;51.102;5.884;2023-03-14T15:53:32;9.92;52.07
71523;HTU21D;59343;51.102;5.884;2023-03-14T16:02:12;9.77;51.88
71523;HTU21D;59343;51.102;5.884;2023-03-14T16:54:29;9.04;54.00
71523;HTU21D;59343;51.102;5.884;2023-03-14T16:57:53;8.97;53.49
71523;HTU21D;59343;51.102;5.884;2023-03-14T23:31:23;5.24;78.66
71523;HTU21D;59343;51.102;5.884;2023-03-14T23:33:51;5.25;78.62
71523;HTU21D;59343;51.102;5.884;2023-03-14T23:36:17;5.26;78.76
71523;HTU21D;59343;51.102;5.884;2023-03-14T23:38:45;5.32;78.72
71523;HTU21D;59343;51.102;5.884;2023-03-14T23:41:12;5.33;78.69
71523;HTU21D;59343;51.102;5.884;2023-03-14T23:43:43;5.37;78.74
71523;HTU21D;59343;51.102;5.884;2023-03-14T23:46:10;5.41;78.59
71523;HTU21D;59343;51.102;5.884;2023-03-14T23:48:37;5.45;78.62
71523;HTU21D;59343;51.102;5.884;2023-03-14T23:51:05;5.46;78.54
71523;HTU21D;59343;51.102;5.884;2023-03-14T23:53:32;5.47;78.56
71523;HTU21D;59343;51.102;5.884;2023-03-14T23:55:59;5.50;78.50
71523;HTU21D;59343;51.102;5.884;2023-03-14T23:58:26;5.41;78.50
